createdAt,value
2019-05-07T00:01:23.479Z,101314.58
2019-05-07T00:03:53.052Z,101309.42
2019-05-07T00:06:23.186Z,101313.30
2019-05-07T00:08:52.842Z,101311.22
2019-05-07T00:11:22.507Z,101318.89
2019-05-07T00:13:52.359Z,101311.35
2019-05-07T00:16:22.548Z,101312.49
2019-05-07T00:18:52.634Z,101306.41
2019-05-07T00:21:23.339Z,101253.54
2019-05-07T00:23:53.252Z,101311.02
2019-05-07T00:26:22.771Z,101310.56
2019-05-07T00:28:52.800Z,101309.28
2019-05-07T00:31:23.506Z,101309.50
2019-05-07T00:33:52.980Z,101304.61
2019-05-07T00:36:34.248Z,101306.27
2019-05-07T00:39:22.065Z,101306.94
2019-05-07T00:41:57.883Z,101298.95
2019-05-07T00:44:27.866Z,101306.85
2019-05-07T00:46:57.365Z,101302.83
2019-05-07T00:49:28.238Z,101303.44
2019-05-07T00:51:57.810Z,101294.72
2019-05-07T00:54:27.326Z,101297.27
2019-05-07T00:56:57.013Z,101292.34
2019-05-07T00:59:26.513Z,101294.51
2019-05-07T01:01:56.014Z,101297.44
2019-05-07T01:04:25.523Z,101297.72
2019-05-07T01:06:55.018Z,101299.12
2019-05-07T01:09:24.524Z,101294.28
2019-05-07T01:11:54.030Z,101300.59
2019-05-07T01:14:23.540Z,101301.52
2019-05-07T01:16:53.103Z,101302.80
2019-05-07T01:19:22.647Z,101297.95
2019-05-07T01:21:52.616Z,101298.39
2019-05-07T01:24:23.342Z,101295.03
2019-05-07T01:26:53.134Z,101298.77
2019-05-07T01:29:22.861Z,101300.53
2019-05-07T01:31:58.375Z,101301.05
2019-05-07T01:34:34.058Z,101304.87
2019-05-07T01:37:03.572Z,101300.67
2019-05-07T01:39:33.179Z,101304.76
2019-05-07T01:42:02.712Z,101308.64
2019-05-07T01:44:32.694Z,101304.76
2019-05-07T01:47:02.668Z,101312.31
2019-05-07T01:49:33.126Z,101304.67
2019-05-07T01:52:03.292Z,101310.52
2019-05-07T01:54:33.401Z,101310.73
2019-05-07T01:57:03.158Z,101307.66
2019-05-07T01:59:32.790Z,101307.98
2019-05-07T02:02:09.080Z,101316.52
2019-05-07T02:04:44.755Z,101318.58
2019-05-07T02:07:33.393Z,101311.74
2019-05-07T02:10:22.755Z,101314.08
2019-05-07T02:12:52.672Z,101314.87
2019-05-07T02:15:22.696Z,101325.13
2019-05-07T02:17:52.669Z,101328.70
2019-05-07T02:20:22.638Z,101326.11
2019-05-07T02:22:53.231Z,101326.13
2019-05-07T02:25:22.884Z,101325.63
2019-05-07T02:27:52.905Z,101325.89
2019-05-07T02:30:23.868Z,101323.25
2019-05-07T02:32:54.108Z,101330.99
2019-05-07T02:35:23.952Z,101320.31
2019-05-07T02:38:06.580Z,101322.05
2019-05-07T02:40:43.311Z,101322.39
2019-05-07T02:43:14.057Z,101321.18
2019-05-07T02:45:54.222Z,101324.20
2019-05-07T02:48:27.532Z,101321.92
2019-05-07T02:51:04.084Z,101323.83
2019-05-07T02:53:42.821Z,101324.47
2019-05-07T02:56:13.028Z,101325.00
2019-05-07T02:58:43.482Z,101335.41
2019-05-07T03:01:14.030Z,101327.47
2019-05-07T03:03:44.939Z,101324.89
2019-05-07T03:06:14.710Z,101327.53
2019-05-07T03:08:44.495Z,101325.58
2019-05-07T03:11:14.399Z,101325.34
2019-05-07T03:13:44.001Z,101320.92
2019-05-07T03:16:13.586Z,101319.44
2019-05-07T03:18:44.703Z,101329.94
2019-05-07T03:21:16.430Z,101321.84
2019-05-07T03:24:05.002Z,101326.81
2019-05-07T03:26:38.923Z,101323.25
2019-05-07T03:29:13.202Z,101327.69
2019-05-07T03:32:06.135Z,101322.86
2019-05-07T03:34:45.827Z,101324.90
2019-05-07T03:37:13.603Z,101322.39
2019-05-07T03:39:44.353Z,101324.78
2019-05-07T03:42:13.917Z,101327.39
2019-05-07T03:44:53.780Z,101330.11
2019-05-07T03:47:32.932Z,101321.04
2019-05-07T03:50:03.212Z,101324.95
2019-05-07T03:52:33.535Z,101323.69
2019-05-07T03:55:03.859Z,101327.97
2019-05-07T03:57:33.813Z,101330.88
2019-05-07T04:00:04.407Z,101336.00
2019-05-07T04:02:34.117Z,101329.24
2019-05-07T04:05:04.499Z,101332.59
2019-05-07T04:07:34.178Z,101329.22
2019-05-07T04:10:04.877Z,101337.06
2019-05-07T04:12:35.026Z,101336.89
2019-05-07T04:15:05.737Z,101336.96
2019-05-07T04:17:35.234Z,101338.91
2019-05-07T04:20:04.998Z,101335.35
2019-05-07T04:22:35.669Z,101331.94
2019-05-07T04:25:24.056Z,101327.84
2019-05-07T04:28:03.689Z,101325.41
2019-05-07T04:30:34.269Z,101332.56
2019-05-07T04:33:06.047Z,101334.48
2019-05-07T04:35:53.533Z,101334.75
2019-05-07T04:38:23.835Z,101337.42
2019-05-07T04:40:53.694Z,101340.08
2019-05-07T04:43:23.601Z,101336.05
2019-05-07T04:45:53.854Z,101340.36
2019-05-07T04:48:23.727Z,101340.53
2019-05-07T04:50:55.536Z,101341.02
2019-05-07T04:53:25.049Z,101341.03
2019-05-07T04:55:54.566Z,101345.69
2019-05-07T04:58:26.572Z,101342.98
2019-05-07T05:00:55.273Z,101346.63
2019-05-07T05:03:26.619Z,101341.78
2019-05-07T05:05:56.130Z,101337.96
2019-05-07T05:08:25.671Z,101341.84
2019-05-07T05:10:55.208Z,101348.00
2019-05-07T05:13:25.003Z,101349.33
2019-05-07T05:15:54.508Z,101347.27
2019-05-07T05:18:24.020Z,101344.23
2019-05-07T05:21:18.574Z,101348.45
2019-05-07T05:23:56.004Z,101349.52
2019-05-07T05:26:25.521Z,101350.55
2019-05-07T05:28:56.403Z,101349.02
2019-05-07T05:31:25.986Z,101349.33
2019-05-07T05:33:55.495Z,101356.48
2019-05-07T05:36:24.999Z,101352.69
2019-05-07T05:38:54.523Z,101350.97
2019-05-07T05:41:25.597Z,101362.13
2019-05-07T05:44:02.496Z,101362.25
2019-05-07T05:46:33.163Z,101363.13
2019-05-07T05:49:02.802Z,101359.95
2019-05-07T05:51:52.517Z,101367.08
2019-05-07T05:54:34.814Z,101362.66
2019-05-07T05:57:32.125Z,101361.81
2019-05-07T06:00:18.878Z,101365.03
2019-05-07T06:02:57.107Z,101362.78
2019-05-07T06:05:42.879Z,101365.89
2019-05-07T06:08:37.272Z,101356.88
2019-05-07T06:11:26.157Z,101358.29
2019-05-07T06:14:02.302Z,101360.17
2019-05-07T06:16:36.731Z,101359.26
2019-05-07T06:19:16.825Z,101362.13
2019-05-07T06:22:16.758Z,101364.31
2019-05-07T06:24:56.402Z,101364.98
2019-05-07T06:27:26.078Z,101365.37
2019-05-07T06:29:55.592Z,101362.09
2019-05-07T06:32:25.111Z,101362.32
2019-05-07T06:34:54.647Z,101361.63
2019-05-07T06:37:24.177Z,101365.66
2019-05-07T06:40:25.717Z,101371.33
2019-05-07T06:43:08.868Z,101363.52
2019-05-07T06:45:42.261Z,101363.42
2019-05-07T06:48:12.675Z,101366.06
2019-05-07T06:50:56.591Z,101369.97
2019-05-07T06:53:29.408Z,101365.21
2019-05-07T06:56:02.529Z,101367.12
2019-05-07T06:58:45.933Z,101371.20
2019-05-07T07:01:38.378Z,101367.68
2019-05-07T07:04:22.521Z,101367.91
2019-05-07T07:07:04.562Z,101369.00
2019-05-07T07:09:53.095Z,101367.35
2019-05-07T07:12:26.103Z,101364.41
2019-05-07T07:14:58.068Z,101366.16
2019-05-07T07:17:26.945Z,101362.13
2019-05-07T07:19:56.527Z,101361.88
2019-05-07T07:22:26.059Z,101359.41
2019-05-07T07:24:55.568Z,101362.89
2019-05-07T07:27:25.119Z,101365.78
2019-05-07T07:30:16.500Z,101353.79
2019-05-07T07:32:47.226Z,101358.69
2019-05-07T07:35:18.206Z,101355.16
2019-05-07T07:37:47.723Z,101359.63
2019-05-07T07:40:29.325Z,101350.55
2019-05-07T07:42:58.835Z,101344.87
2019-05-07T07:45:28.429Z,101343.52
2019-05-07T07:47:57.935Z,101343.52
2019-05-07T07:50:27.521Z,101344.93
2019-05-07T07:52:57.024Z,101348.13
2019-05-07T07:55:33.217Z,101349.22
2019-05-07T07:58:22.202Z,101352.70
2019-05-07T08:01:12.198Z,101350.20
2019-05-07T08:03:41.888Z,101346.50
2019-05-07T08:06:11.956Z,101344.75
2019-05-07T08:08:42.463Z,101345.63
2019-05-07T08:11:12.779Z,101340.42
2019-05-07T08:13:42.550Z,101341.33
2019-05-07T08:16:13.160Z,101346.84
2019-05-07T08:18:43.821Z,101339.83
2019-05-07T08:21:13.321Z,101337.45
2019-05-07T08:23:42.830Z,101337.83
2019-05-07T08:26:12.664Z,101339.40
2019-05-07T08:28:42.228Z,101340.58
2019-05-07T08:31:24.981Z,101335.89
2019-05-07T08:34:03.444Z,101337.41
2019-05-07T08:36:33.225Z,101334.11
2019-05-07T08:39:02.779Z,101334.16
2019-05-07T08:41:33.363Z,101332.12
2019-05-07T08:44:14.615Z,101338.42
2019-05-07T08:46:58.615Z,101332.44
2019-05-07T08:49:36.898Z,101329.45
2019-05-07T08:52:03.518Z,101330.69
2019-05-07T08:54:33.637Z,101328.13
2019-05-07T08:57:03.221Z,101322.50
2019-05-07T08:59:33.906Z,101321.83
2019-05-07T09:02:03.705Z,101316.09
2019-05-07T09:04:33.213Z,101311.55
2019-05-07T09:07:02.966Z,101316.13
2019-05-07T09:09:32.789Z,101309.58
2019-05-07T09:12:03.212Z,101309.09
2019-05-07T09:14:32.808Z,101302.99
2019-05-07T09:17:02.901Z,101307.45
2019-05-07T09:19:46.777Z,101306.33
2019-05-07T09:22:04.383Z,101310.97
2019-05-07T09:24:33.882Z,101308.48
2019-05-07T09:27:24.757Z,101302.51
2019-05-07T09:30:16.074Z,101307.56
2019-05-07T09:32:52.209Z,101300.12
2019-05-07T09:35:25.267Z,101299.14
2019-05-07T09:37:54.786Z,101301.33
2019-05-07T09:40:24.292Z,101297.27
2019-05-07T09:42:53.797Z,101301.98
2019-05-07T09:45:23.366Z,101300.39
2019-05-07T09:47:52.863Z,101298.64
2019-05-07T09:50:22.380Z,101292.91
2019-05-07T09:52:52.046Z,101293.25
2019-05-07T09:55:23.373Z,101293.92
2019-05-07T09:57:52.915Z,101288.28
2019-05-07T10:00:23.259Z,101278.59
2019-05-07T10:02:52.949Z,101276.83
2019-05-07T10:05:22.536Z,101277.79
2019-05-07T10:07:52.611Z,101277.47
2019-05-07T10:10:22.390Z,101281.87
2019-05-07T10:13:17.051Z,101281.77
2019-05-07T10:15:46.612Z,101283.30
2019-05-07T10:18:17.649Z,101273.83
2019-05-07T10:20:47.226Z,101275.19
2019-05-07T10:23:22.393Z,101271.13
2019-05-07T10:25:53.329Z,101272.66
2019-05-07T10:28:23.310Z,101269.97
2019-05-07T10:30:54.329Z,101244.85
2019-05-07T10:33:24.870Z,101244.85
2019-05-07T10:35:54.459Z,101253.25
2019-05-07T10:38:23.980Z,101258.52
2019-05-07T10:40:53.565Z,101255.92
2019-05-07T10:43:23.148Z,101255.03
2019-05-07T10:46:12.637Z,101247.37
2019-05-07T10:48:59.073Z,101248.39
2019-05-07T10:51:28.586Z,101252.03
2019-05-07T10:53:58.125Z,101244.09
2019-05-07T10:56:27.708Z,101245.83
2019-05-07T10:58:57.333Z,101238.40
2019-05-07T11:01:34.129Z,101235.86
2019-05-07T11:04:03.720Z,101234.71
2019-05-07T11:06:33.222Z,101236.58
2019-05-07T11:09:02.783Z,101234.09
2019-05-07T11:11:33.905Z,101233.92
2019-05-07T11:14:03.490Z,101230.00
2019-05-07T11:16:37.372Z,101229.12
2019-05-07T11:19:06.892Z,101231.14
2019-05-07T11:21:36.468Z,101228.71
2019-05-07T11:24:06.041Z,101221.47
2019-05-07T11:26:35.551Z,101223.73
2019-05-07T11:29:05.218Z,101221.47
2019-05-07T11:31:35.682Z,101215.00
2019-05-07T11:34:05.255Z,101220.27
2019-05-07T11:36:34.863Z,101215.15
2019-05-07T11:39:06.271Z,101212.59
2019-05-07T11:41:47.272Z,101205.31
2019-05-07T11:44:23.002Z,101202.33
2019-05-07T11:47:12.303Z,101200.16
2019-05-07T11:49:59.779Z,101202.70
2019-05-07T11:52:35.783Z,101201.02
2019-05-07T11:55:06.354Z,101197.56
2019-05-07T11:57:35.908Z,101194.55
2019-05-07T12:00:05.871Z,101194.59
2019-05-07T12:02:35.390Z,101194.16
2019-05-07T12:05:05.035Z,101189.45
2019-05-07T12:07:34.527Z,101186.03
2019-05-07T12:10:05.069Z,101187.50
2019-05-07T12:12:34.550Z,101186.31
2019-05-07T12:15:04.180Z,101179.50
2019-05-07T12:17:33.759Z,101177.28
2019-05-07T12:20:05.392Z,101180.34
2019-05-07T12:22:47.367Z,101177.69
2019-05-07T12:25:19.466Z,101175.55
2019-05-07T12:27:50.529Z,101166.59
2019-05-07T12:33:49.283Z,101163.11
2019-05-07T12:36:18.876Z,101163.81
2019-05-07T12:38:48.384Z,101163.16
2019-05-07T12:41:33.207Z,101157.67
2019-05-07T12:44:03.020Z,101152.58
2019-05-07T12:46:33.808Z,101151.38
2019-05-07T12:49:03.561Z,101150.53
2019-05-07T12:51:38.543Z,101153.84
2019-05-07T12:54:27.349Z,101139.67
2019-05-07T12:56:56.988Z,101140.19
2019-05-07T12:59:26.892Z,101138.59
2019-05-07T13:02:21.419Z,101136.50
2019-05-07T13:04:41.805Z,101133.16
2019-05-07T13:07:29.201Z,101122.06
2019-05-07T13:09:59.645Z,101120.73
2019-05-07T13:12:32.703Z,101125.06
2019-05-07T13:15:02.967Z,101117.70
2019-05-07T13:17:34.382Z,101121.06
2019-05-07T13:20:17.929Z,101119.73
2019-05-07T13:22:47.056Z,101117.56
2019-05-07T13:25:18.252Z,101113.74
2019-05-07T13:27:47.757Z,101108.59
2019-05-07T13:30:17.737Z,101105.44
2019-05-07T13:33:12.374Z,101097.02
2019-05-07T13:35:44.556Z,101100.45
2019-05-07T13:38:51.975Z,101102.66
2019-05-07T13:41:56.086Z,101098.41
2019-05-07T13:44:33.332Z,101092.73
2019-05-07T13:47:21.915Z,101092.77
2019-05-07T13:49:53.741Z,101090.71
2019-05-07T13:52:24.080Z,101080.80
2019-05-07T13:54:54.028Z,101079.97
2019-05-07T13:57:24.081Z,101073.58
2019-05-07T13:59:54.334Z,101069.72
2019-05-07T14:02:26.083Z,101075.74
2019-05-07T14:04:55.729Z,101072.30
2019-05-07T14:07:26.760Z,101062.88
2019-05-07T14:09:56.317Z,101069.33
2019-05-07T14:12:29.459Z,101063.35
2019-05-07T14:14:59.027Z,101066.38
2019-05-07T14:17:28.545Z,101062.09
2019-05-07T14:19:58.076Z,101062.88
2019-05-07T14:22:27.721Z,101061.11
2019-05-07T14:24:57.255Z,101064.48
2019-05-07T14:27:26.931Z,101061.53
2019-05-07T14:29:56.501Z,101061.98
2019-05-07T14:32:52.560Z,101056.87
2019-05-07T14:35:48.702Z,101057.30
2019-05-07T14:38:25.459Z,101048.72
2019-05-07T14:40:54.975Z,100993.30
2019-05-07T14:43:34.612Z,101049.61
2019-05-07T14:46:04.393Z,101046.20
2019-05-07T14:48:36.233Z,101044.48
2019-05-07T14:51:05.295Z,101041.45
2019-05-07T14:53:34.851Z,101034.98
2019-05-07T14:56:04.406Z,101031.53
2019-05-07T14:58:34.119Z,101030.24
2019-05-07T15:01:03.741Z,101021.66
2019-05-07T15:03:33.260Z,101023.38
2019-05-07T15:06:02.936Z,101020.41
2019-05-07T15:08:33.439Z,101020.84
2019-05-07T15:11:03.101Z,101013.53
2019-05-07T15:13:32.741Z,101012.23
2019-05-07T15:16:03.098Z,101012.66
2019-05-07T15:18:52.969Z,101008.80
2019-05-07T15:21:22.984Z,101001.06
2019-05-07T15:23:56.797Z,101000.17
2019-05-07T15:26:27.465Z,101002.33
2019-05-07T15:29:12.034Z,100998.88
2019-05-07T15:32:18.736Z,100997.61
2019-05-07T15:34:48.251Z,100998.47
2019-05-07T15:37:18.707Z,100990.70
2019-05-07T15:39:48.501Z,100987.20
2019-05-07T15:42:18.067Z,100985.98
2019-05-07T15:44:48.539Z,100980.42
2019-05-07T15:47:23.471Z,100978.75
2019-05-07T15:49:53.009Z,100983.90
2019-05-07T15:52:51.462Z,100977.42
2019-05-07T15:55:15.738Z,100979.17
2019-05-07T15:57:45.550Z,100967.57
2019-05-07T16:00:17.986Z,100963.25
2019-05-07T16:02:53.565Z,100960.67
2019-05-07T16:05:22.438Z,100961.11
2019-05-07T16:07:52.473Z,100959.81
2019-05-07T16:10:23.290Z,100956.80
2019-05-07T16:12:53.433Z,100956.39
2019-05-07T16:15:22.997Z,100952.95
2019-05-07T16:17:57.618Z,100957.68
2019-05-07T16:20:27.138Z,100957.67
2019-05-07T16:23:12.118Z,100952.52
2019-05-07T16:25:32.870Z,100952.52
2019-05-07T16:28:04.897Z,100950.81
2019-05-07T16:30:34.256Z,100955.52
2019-05-07T16:33:03.763Z,100951.67
2019-05-07T16:35:37.528Z,100948.24
2019-05-07T16:38:07.775Z,100943.49
2019-05-07T16:40:37.302Z,100947.81
2019-05-07T16:43:06.847Z,100943.95
2019-05-07T16:45:36.801Z,100941.34
2019-05-07T16:48:06.397Z,100934.91
2019-05-07T16:50:36.883Z,100940.06
2019-05-07T16:53:06.842Z,100937.05
2019-05-07T16:55:37.148Z,100930.64
2019-05-07T16:58:12.569Z,100935.77
2019-05-07T17:00:45.096Z,100937.91
2019-05-07T17:03:19.112Z,100930.20
2019-05-07T17:05:49.034Z,100928.05
2019-05-07T17:08:26.633Z,100927.63
2019-05-07T17:10:56.589Z,100933.20
2019-05-07T17:13:26.370Z,100928.47
2019-05-07T17:16:03.375Z,100931.00
2019-05-07T17:18:35.563Z,100928.81
2019-05-07T17:21:06.019Z,100930.47
2019-05-07T17:23:44.238Z,100932.95
2019-05-07T17:26:06.767Z,100928.58
2019-05-07T17:28:36.561Z,100928.39
2019-05-07T17:31:06.226Z,100928.70
2019-05-07T17:33:35.787Z,100927.73
2019-05-07T17:36:05.586Z,100930.72
2019-05-07T17:38:35.096Z,100930.64
2019-05-07T17:41:13.053Z,100934.06
2019-05-07T17:43:36.327Z,100931.80
2019-05-07T17:46:07.762Z,100932.22
2019-05-07T17:48:37.751Z,100925.80
2019-05-07T17:51:26.771Z,100932.21
2019-05-07T17:54:00.159Z,100930.12
2019-05-07T17:56:32.052Z,100934.02
2019-05-07T17:59:02.888Z,100939.16
2019-05-07T18:01:59.216Z,100933.12
2019-05-07T18:04:36.549Z,100926.27
2019-05-07T18:07:03.436Z,100922.80
2019-05-07T18:09:33.823Z,100920.18
2019-05-07T18:12:03.709Z,100918.48
2019-05-07T18:14:33.447Z,100918.09
2019-05-07T18:17:08.843Z,100918.10
2019-05-07T18:19:38.535Z,100915.03
2019-05-07T18:22:34.758Z,100909.49
2019-05-07T18:25:46.209Z,100915.58
2019-05-07T18:28:08.119Z,100913.86
2019-05-07T18:30:37.691Z,100915.59
2019-05-07T18:33:25.558Z,100914.84
2019-05-07T18:35:55.165Z,100914.45
2019-05-07T18:38:24.697Z,100911.59
2019-05-07T18:40:54.221Z,100911.64
2019-05-07T18:43:23.750Z,100912.52
2019-05-07T18:45:53.267Z,100909.58
2019-05-07T18:48:22.783Z,100907.87
2019-05-07T18:50:52.366Z,100912.19
2019-05-07T18:53:22.902Z,100906.22
2019-05-07T18:55:52.425Z,100909.67
2019-05-07T18:58:24.090Z,100907.03
2019-05-07T19:01:11.769Z,100905.27
2019-05-07T19:03:41.950Z,100903.11
2019-05-07T19:06:13.366Z,100906.08
2019-05-07T19:08:43.206Z,100909.03
2019-05-07T19:11:12.832Z,100900.09
2019-05-07T19:13:42.438Z,100902.60
2019-05-07T19:16:12.674Z,100905.56
2019-05-07T19:18:43.216Z,100906.33
2019-05-07T19:21:12.917Z,100906.73
2019-05-07T19:23:42.579Z,100912.66
2019-05-07T19:26:13.328Z,100914.36
2019-05-07T19:28:44.030Z,100917.16
2019-05-07T19:31:13.527Z,100912.73
2019-05-07T19:33:43.063Z,100916.41
2019-05-07T19:36:12.748Z,100914.65
2019-05-07T19:38:42.423Z,100889.37
2019-05-07T19:41:12.443Z,100923.34
2019-05-07T19:43:42.143Z,100913.81
2019-05-07T19:46:12.628Z,100917.19
2019-05-07T19:48:44.057Z,100915.42
2019-05-07T19:51:13.294Z,100913.73
2019-05-07T19:53:42.793Z,100914.09
2019-05-07T19:56:17.989Z,100909.77
2019-05-07T19:58:47.760Z,100903.78
2019-05-07T20:01:22.784Z,100905.47
2019-05-07T20:03:53.002Z,100902.03
2019-05-07T20:06:23.453Z,100897.16
2019-05-07T20:08:53.161Z,100897.08
2019-05-07T20:11:28.525Z,100897.42
2019-05-07T20:13:58.115Z,100901.53
2019-05-07T20:16:27.832Z,100897.95
2019-05-07T20:18:57.351Z,100893.71
2019-05-07T20:21:26.959Z,100891.00
2019-05-07T20:23:56.481Z,100896.17
2019-05-07T20:26:26.009Z,100893.04
2019-05-07T20:28:55.519Z,100894.69
2019-05-07T20:31:25.030Z,100892.43
2019-05-07T20:33:54.586Z,100892.74
2019-05-07T20:36:24.162Z,100891.46
2019-05-07T20:38:53.681Z,100881.66
2019-05-07T20:41:23.461Z,100892.69
2019-05-07T20:43:53.084Z,100884.11
2019-05-07T20:46:22.594Z,100881.55
2019-05-07T20:48:52.666Z,100878.51
2019-05-07T20:51:23.085Z,100876.78
2019-05-07T20:54:14.839Z,100875.47
2019-05-07T20:56:55.877Z,100880.13
2019-05-07T20:59:25.444Z,100874.94
2019-05-07T21:01:54.948Z,100872.38
2019-05-07T21:04:24.571Z,100876.22
2019-05-07T21:06:54.150Z,100875.65
2019-05-07T21:09:23.679Z,100873.48
2019-05-07T21:11:53.171Z,100869.98
2019-05-07T21:14:22.922Z,100870.31
2019-05-07T21:16:52.466Z,100860.84
2019-05-07T21:19:22.402Z,100858.19
2019-05-07T21:21:52.103Z,100862.38
2019-05-07T21:24:22.534Z,100852.48
2019-05-07T21:26:53.064Z,100852.91
2019-05-07T21:29:22.882Z,100847.62
2019-05-07T21:31:52.548Z,100850.91
2019-05-07T21:34:23.001Z,100854.71
2019-05-07T21:36:52.695Z,100844.75
2019-05-07T21:39:22.459Z,100837.88
2019-05-07T21:41:52.132Z,100837.88
2019-05-07T21:44:25.253Z,100833.94
2019-05-07T21:46:53.816Z,100830.89
2019-05-07T21:49:23.353Z,100826.53
2019-05-07T21:51:54.617Z,100829.50
2019-05-07T21:54:38.855Z,100821.27
2019-05-07T21:57:32.830Z,100817.73
2019-05-07T22:00:15.585Z,100814.36
2019-05-07T22:02:46.723Z,100811.69
2019-05-07T22:05:16.356Z,100802.97
2019-05-07T22:07:45.878Z,100798.03
2019-05-07T22:10:15.664Z,100800.52
2019-05-07T22:12:45.241Z,100792.69
2019-05-07T22:15:14.827Z,100793.55
2019-05-07T22:17:44.490Z,100789.19
2019-05-07T22:20:14.206Z,100787.79
2019-05-07T22:22:43.707Z,100785.57
2019-05-07T22:25:13.225Z,100777.08
2019-05-07T22:27:44.341Z,100786.76
2019-05-07T22:30:19.621Z,100779.67
2019-05-07T22:32:56.456Z,100781.81
2019-05-07T22:35:29.783Z,100777.89
2019-05-07T22:38:00.900Z,100782.59
2019-05-07T22:40:32.185Z,100775.87
2019-05-07T22:43:03.248Z,100769.05
2019-05-07T22:45:32.797Z,100765.55
2019-05-07T22:48:02.910Z,100760.56
2019-05-07T22:50:33.139Z,100760.43
2019-05-07T22:53:02.916Z,100755.28
2019-05-07T22:55:32.758Z,100754.05
2019-05-07T22:58:07.088Z,100748.40
2019-05-07T23:00:42.530Z,100740.07
2019-05-07T23:03:12.344Z,100737.14
2019-05-07T23:05:44.950Z,100739.98
2019-05-07T23:08:14.114Z,100678.84
2019-05-07T23:10:44.605Z,100724.49
2019-05-07T23:13:14.220Z,100722.72
2019-05-07T23:15:44.746Z,100724.66
2019-05-07T23:18:14.267Z,100720.20
2019-05-07T23:20:43.843Z,100720.11
2019-05-07T23:23:14.221Z,100720.16
2019-05-07T23:25:43.756Z,100718.02
2019-05-07T23:28:13.276Z,100716.78
2019-05-07T23:30:44.359Z,100711.19
2019-05-07T23:33:14.002Z,100710.72
2019-05-07T23:35:43.598Z,100708.48
2019-05-07T23:38:15.905Z,100700.48
2019-05-07T23:41:02.167Z,100693.91
2019-05-07T23:43:32.006Z,100691.37
2019-05-07T23:46:02.490Z,100691.28
2019-05-07T23:48:32.222Z,100678.08
2019-05-07T23:51:02.286Z,100686.48
2019-05-07T23:53:31.859Z,100679.56
2019-05-07T23:56:02.846Z,100677.37
2019-05-07T23:58:32.693Z,100674.31
